Time;durP1;ratioP1;P1;durP2;ratioP2;P2;SDS_P1;SDS_P2;PMS_P1;PMS_P2;Temp;Humidity;BMP_temperature;BMP_pressure;BME280_temperature;BME280_humidity;BME280_pressure;Samples;Min_cycle;Max_cycle;Signal;HPM_P1;HPM_P2
2023/01/11 00:01:33;;;;;;;0.50;0.40;;;9.40;99.90;;;;;;5094328;28;20197;-50
2023/01/11 00:03:59;;;;;;;0.20;0.20;;;9.50;99.90;;;;;;5093897;28;20248;-51
2023/01/11 00:06:25;;;;;;;1.33;0.30;;;9.50;99.90;;;;;;5094170;28;20282;-52
2023/01/11 00:08:50;;;;;;;0.20;0.20;;;9.50;99.90;;;;;;5093872;28;20705;-51
2023/01/11 00:11:16;;;;;;;0.30;0.30;;;9.50;99.90;;;;;;5093822;28;20203;-51
2023/01/11 00:13:45;;;;;;;0.40;0.30;;;9.60;99.90;;;;;;5093731;28;20210;-51
2023/01/11 00:16:11;;;;;;;0.40;0.30;;;9.70;99.90;;;;;;5075911;28;20554;-51
2023/01/11 00:18:37;;;;;;;0.20;0.20;;;9.60;99.90;;;;;;5093796;28;20180;-50
2023/01/11 00:21:07;;;;;;;0.20;0.20;;;9.70;99.90;;;;;;5094133;28;20532;-51
2023/01/11 00:23:33;;;;;;;1.03;0.30;;;9.70;99.90;;;;;;5093681;28;20170;-51
2023/01/11 00:26:05;;;;;;;0.20;0.20;;;9.70;99.90;;;;;;5093604;28;20205;-52
2023/01/11 00:28:31;;;;;;;0.30;0.30;;;9.70;99.90;;;;;;5093505;28;20189;-51
2023/01/11 00:30:57;;;;;;;0.20;0.20;;;9.80;99.90;;;;;;5093676;28;20600;-52
2023/01/11 00:33:22;;;;;;;0.30;0.30;;;9.80;99.90;;;;;;5093418;28;20603;-51
2023/01/11 00:35:50;;;;;;;0.30;0.30;;;9.90;99.90;;;;;;5093498;28;20694;-51
2023/01/11 00:38:42;;;;;;;0.30;0.30;;;9.90;99.90;;;;;;5093463;28;20198;-51
2023/01/11 00:47:55;;;;;;;0.73;0.30;;;9.90;99.90;;;;;;5093283;28;20186;-51
2023/01/11 00:49:15;;;;;;;1.20;0.30;;;10.00;99.90;;;;;;5096041;28;20184;-52
2023/01/11 00:51:41;;;;;;;0.40;0.40;;;10.00;99.90;;;;;;5097542;28;20196;-51
2023/01/11 00:54:06;;;;;;;1.50;0.30;;;10.10;99.90;;;;;;5079468;28;20174;-46
2023/01/11 00:56:32;;;;;;;2.10;0.40;;;10.20;99.90;;;;;;5097819;28;20172;-47
2023/01/11 00:58:58;;;;;;;0.37;0.30;;;10.20;99.90;;;;;;5097556;28;20250;-46
2023/01/11 01:01:23;;;;;;;0.50;0.30;;;10.20;99.90;;;;;;5097468;28;20191;-47
2023/01/11 01:03:49;;;;;;;0.47;0.40;;;10.30;99.90;;;;;;5079692;28;20171;-46
2023/01/11 01:06:14;;;;;;;0.40;0.27;;;10.30;99.90;;;;;;5097715;28;20238;-47
2023/01/11 01:08:40;;;;;;;0.67;0.20;;;10.30;99.90;;;;;;5097620;28;20173;-46
2023/01/11 01:11:05;;;;;;;0.20;0.20;;;10.30;99.90;;;;;;5097859;28;20179;-52
2023/01/11 01:16:15;;;;;;;0.30;0.30;;;10.40;99.90;;;;;;5097748;28;20698;-50
2023/01/11 01:18:40;;;;;;;0.30;0.30;;;10.40;99.90;;;;;;5097422;28;20254;-52
2023/01/11 01:21:06;;;;;;;0.40;0.20;;;10.40;99.90;;;;;;5097153;28;20222;-52
2023/01/11 01:23:32;;;;;;;0.97;0.37;;;10.40;99.90;;;;;;5097554;28;20213;-51
2023/01/11 01:26:01;;;;;;;0.20;0.20;;;10.50;99.90;;;;;;5097488;28;20181;-53
2023/01/11 01:28:26;;;;;;;0.77;0.30;;;10.50;99.90;;;;;;5097265;28;20222;-52
2023/01/11 01:30:52;;;;;;;0.57;0.30;;;10.60;99.90;;;;;;5096887;28;20208;-50
2023/01/11 01:33:18;;;;;;;0.30;0.30;;;10.60;99.90;;;;;;5096670;28;20280;-52
2023/01/11 01:35:43;;;;;;;0.27;0.20;;;10.60;99.90;;;;;;5096771;28;20243;-50
2023/01/11 01:38:09;;;;;;;1.67;0.20;;;10.70;99.90;;;;;;5096839;28;20562;-52
2023/01/11 01:40:41;;;;;;;0.37;0.33;;;10.60;99.90;;;;;;5096709;28;20172;-49
2023/01/11 01:43:10;;;;;;;0.40;0.40;;;10.60;99.90;;;;;;5096925;28;20198;-50
2023/01/11 01:45:36;;;;;;;0.20;0.20;;;10.60;99.90;;;;;;5096861;28;20641;-51
2023/01/11 01:48:04;;;;;;;0.20;0.20;;;10.60;99.90;;;;;;5096572;28;20230;-50
2023/01/11 01:51:00;;;;;;;0.20;0.20;;;10.60;99.90;;;;;;5096767;28;20177;-51
2023/01/11 01:53:36;;;;;;;0.30;0.30;;;10.60;99.90;;;;;;5096422;28;20626;-50
2023/01/11 01:56:17;;;;;;;0.53;0.30;;;10.70;99.90;;;;;;5096485;28;20157;-50
2023/01/11 01:58:52;;;;;;;0.20;0.20;;;10.70;99.90;;;;;;5096453;28;20527;-51
2023/01/11 02:04:12;;;;;;;0.63;0.20;;;10.80;99.90;;;;;;5096902;28;20583;-52
2023/01/11 02:06:38;;;;;;;0.87;0.30;;;10.80;99.90;;;;;;5096638;28;20572;-51
2023/01/11 02:09:13;;;;;;;0.20;0.20;;;10.90;99.90;;;;;;5096148;28;20175;-50
2023/01/11 02:11:42;;;;;;;0.63;0.20;;;10.90;99.90;;;;;;5096516;28;20212;-51
2023/01/11 02:14:11;;;;;;;0.37;0.20;;;10.90;99.90;;;;;;5096189;28;20198;-50
2023/01/11 02:16:37;;;;;;;0.33;0.27;;;10.90;99.90;;;;;;5096022;28;20178;-50
2023/01/11 02:19:05;;;;;;;0.20;0.20;;;10.90;99.90;;;;;;5096148;28;20182;-50
2023/01/11 02:22:03;;;;;;;0.20;0.20;;;10.90;99.90;;;;;;5078167;28;20258;-51
2023/01/11 02:24:32;;;;;;;0.20;0.20;;;10.90;99.90;;;;;;5096567;28;20166;-50
2023/01/11 02:27:21;;;;;;;1.23;0.20;;;10.90;99.90;;;;;;5095840;28;20186;-50
2023/01/11 02:30:07;;;;;;;0.20;0.20;;;10.80;99.90;;;;;;5096042;28;20250;-46
2023/01/11 02:32:50;;;;;;;0.10;0.10;;;10.80;99.90;;;;;;5097187;28;20209;-46
2023/01/11 02:35:24;;;;;;;0.20;0.20;;;10.80;99.90;;;;;;5098682;28;20181;-46
2023/01/11 02:38:09;;;;;;;0.20;0.20;;;10.70;99.90;;;;;;5095599;28;20162;-44
2023/01/11 02:41:01;;;;;;;0.20;0.20;;;10.80;99.90;;;;;;5095689;28;20251;-45
2023/01/11 02:46:33;;;;;;;1.47;0.20;;;10.80;99.90;;;;;;5095917;28;20635;-45
2023/01/11 02:49:08;;;;;;;0.10;0.10;;;10.70;99.90;;;;;;5095770;28;20182;-46
2023/01/11 02:51:55;;;;;;;0.20;0.20;;;10.70;99.90;;;;;;5095404;28;20563;-47
2023/01/11 02:54:22;;;;;;;0.20;0.20;;;10.80;99.90;;;;;;5095456;28;20181;-46
2023/01/11 02:56:53;;;;;;;0.20;0.20;;;10.80;99.90;;;;;;5095203;28;20178;-44
2023/01/11 02:59:28;;;;;;;0.20;0.20;;;10.70;99.90;;;;;;5095520;28;20689;-45
2023/01/11 03:01:56;;;;;;;0.20;0.20;;;10.80;99.90;;;;;;5095342;28;20200;-45
2023/01/11 03:04:27;;;;;;;3.90;0.23;;;10.80;99.90;;;;;;5095101;28;20192;-45
2023/01/11 03:07:17;;;;;;;0.77;0.20;;;10.80;99.90;;;;;;5095241;28;20653;-45
2023/01/11 03:10:12;;;;;;;0.63;0.20;;;10.80;99.90;;;;;;5095244;28;20517;-47
2023/01/11 03:12:59;;;;;;;1.83;0.20;;;10.80;99.90;;;;;;5049683;28;20363;-45
2023/01/11 03:15:54;;;;;;;0.20;0.20;;;10.80;99.90;;;;;;5100163;22;20239;-48
2023/01/11 03:18:45;;;;;;;0.20;0.20;;;10.80;99.90;;;;;;5079123;28;20666;-48
2023/01/11 03:21:29;;;;;;;0.20;0.20;;;10.80;99.90;;;;;;5077543;28;20160;-49
2023/01/11 03:24:18;;;;;;;0.27;0.20;;;10.90;99.90;;;;;;5075143;28;20210;-47
2023/01/11 03:27:00;;;;;;;0.43;0.20;;;10.90;99.90;;;;;;5038371;28;20654;-49
2023/01/11 03:29:29;;;;;;;0.30;0.20;;;10.90;99.90;;;;;;5078787;28;20190;-47
2023/01/11 03:32:16;;;;;;;0.50;0.50;;;10.90;99.90;;;;;;5078550;28;20213;-47
2023/01/11 03:34:47;;;;;;;1.27;0.20;;;10.90;99.90;;;;;;5078180;28;20193;-47
2023/01/11 03:37:52;;;;;;;0.87;0.33;;;10.90;99.90;;;;;;5078654;28;20171;-47
2023/01/11 03:40:20;;;;;;;0.47;0.20;;;10.90;99.90;;;;;;5072147;28;20191;-47
2023/01/11 03:45:47;;;;;;;0.20;0.20;;;10.80;99.90;;;;;;5078014;28;20204;-49
2023/01/11 03:48:22;;;;;;;0.23;0.23;;;10.80;99.90;;;;;;5077897;28;20167;-47
2023/01/11 03:50:50;;;;;;;0.20;0.20;;;10.80;99.90;;;;;;5078012;28;20170;-49
2023/01/11 03:53:19;;;;;;;0.40;0.20;;;10.80;99.90;;;;;;5076933;28;20229;-49
2023/01/11 03:55:50;;;;;;;0.30;0.20;;;10.80;99.90;;;;;;5077121;28;20545;-49
2023/01/11 03:58:15;;;;;;;0.60;0.27;;;10.80;99.90;;;;;;5077921;28;20163;-47
2023/01/11 04:00:42;;;;;;;0.20;0.20;;;10.80;99.90;;;;;;5078305;28;20163;-46
2023/01/11 04:03:08;;;;;;;0.40;0.40;;;10.80;99.90;;;;;;5077814;28;20195;-47
2023/01/11 04:05:35;;;;;;;1.00;0.20;;;10.80;99.90;;;;;;5078314;28;20182;-49
2023/01/11 04:08:01;;;;;;;0.20;0.20;;;10.80;99.90;;;;;;5076565;28;20167;-48
2023/01/11 04:10:26;;;;;;;0.17;0.17;;;10.80;99.90;;;;;;5057134;28;20183;-47
2023/01/11 04:12:52;;;;;;;0.20;0.20;;;10.80;99.90;;;;;;5074870;28;20214;-48
2023/01/11 04:15:17;;;;;;;0.20;0.20;;;10.90;99.90;;;;;;5074467;28;20189;-48
2023/01/11 04:17:43;;;;;;;0.20;0.20;;;10.90;99.90;;;;;;5074575;28;20633;-49
2023/01/11 04:20:10;;;;;;;0.67;0.40;;;10.90;99.90;;;;;;5073879;28;20209;-47
2023/01/11 04:22:35;;;;;;;0.20;0.20;;;10.90;99.90;;;;;;5073430;28;20206;-48
2023/01/11 04:25:01;;;;;;;0.20;0.20;;;10.90;99.90;;;;;;5073705;28;20178;-48
2023/01/11 04:27:26;;;;;;;0.13;0.13;;;10.90;99.90;;;;;;5074013;28;20178;-48
2023/01/11 04:29:52;;;;;;;0.90;0.23;;;10.90;99.90;;;;;;5074154;28;20643;-49
2023/01/11 04:32:17;;;;;;;0.20;0.20;;;10.90;99.90;;;;;;5073939;28;20651;-47
2023/01/11 04:34:43;;;;;;;0.20;0.20;;;11.00;99.90;;;;;;5073967;28;20178;-49
2023/01/11 04:37:10;;;;;;;0.20;0.10;;;10.90;99.90;;;;;;5073709;28;20539;-47
2023/01/11 04:39:36;;;;;;;0.10;0.10;;;11.00;99.90;;;;;;5075227;28;20187;-48
2023/01/11 04:42:17;;;;;;;0.20;0.20;;;11.00;99.90;;;;;;5074815;28;20198;-48
2023/01/11 04:44:47;;;;;;;0.30;0.20;;;11.00;99.90;;;;;;5076302;28;20248;-46
2023/01/11 04:47:14;;;;;;;0.20;0.20;;;11.00;99.90;;;;;;5076676;28;20309;-48
2023/01/11 04:49:40;;;;;;;0.10;0.10;;;11.00;99.90;;;;;;5074467;28;20174;-49
2023/01/11 04:52:05;;;;;;;0.10;0.10;;;11.00;99.90;;;;;;5073611;28;20596;-48
2023/01/11 04:54:31;;;;;;;0.20;0.20;;;11.00;99.90;;;;;;5073850;28;20256;-50
2023/01/11 04:56:57;;;;;;;0.33;0.23;;;11.00;99.90;;;;;;5073678;28;20170;-48
2023/01/11 04:59:22;;;;;;;1.47;0.20;;;11.00;99.90;;;;;;5073773;28;20318;-48
2023/01/11 05:01:48;;;;;;;0.20;0.20;;;11.00;99.90;;;;;;5073494;28;20195;-47
2023/01/11 05:04:13;;;;;;;0.10;0.10;;;11.10;99.90;;;;;;5073864;28;20731;-49
2023/01/11 05:06:39;;;;;;;0.20;0.20;;;11.10;99.90;;;;;;5074131;28;20696;-47
2023/01/11 05:09:10;;;;;;;1.03;0.30;;;11.10;99.90;;;;;;5073745;28;20180;-48
2023/01/11 05:11:36;;;;;;;0.20;0.20;;;11.00;99.90;;;;;;5073667;28;20198;-47
2023/01/11 05:14:01;;;;;;;0.20;0.20;;;11.00;99.90;;;;;;5073431;28;20263;-47
2023/01/11 05:16:27;;;;;;;0.20;0.20;;;11.10;99.90;;;;;;5073535;28;20191;-49
2023/01/11 05:18:54;;;;;;;0.10;0.10;;;11.00;99.90;;;;;;5074135;28;20184;-47
2023/01/11 05:21:23;;;;;;;0.20;0.20;;;11.00;99.90;;;;;;5074197;28;20716;-47
2023/01/11 05:23:49;;;;;;;0.10;0.10;;;11.00;99.90;;;;;;5074423;28;20172;-47
2023/01/11 05:26:17;;;;;;;0.17;0.17;;;11.00;99.90;;;;;;5074205;28;20194;-46
2023/01/11 05:28:43;;;;;;;0.10;0.10;;;11.00;99.90;;;;;;5075350;28;20240;-47
2023/01/11 05:31:09;;;;;;;0.10;0.10;;;11.10;99.90;;;;;;5075823;28;20194;-49
2023/01/11 05:33:35;;;;;;;0.20;0.20;;;11.00;99.90;;;;;;5058941;28;20580;-47
2023/01/11 05:36:04;;;;;;;0.10;0.10;;;11.00;99.90;;;;;;5079825;28;20183;-47
2023/01/11 05:38:29;;;;;;;0.13;0.13;;;11.00;99.90;;;;;;5079536;28;20650;-47
2023/01/11 05:41:04;;;;;;;0.43;0.23;;;11.00;99.90;;;;;;5079474;28;20179;-47
2023/01/11 05:43:30;;;;;;;0.20;0.20;;;11.00;99.90;;;;;;5079530;28;20708;-47
2023/01/11 05:45:57;;;;;;;0.20;0.20;;;11.00;99.90;;;;;;5078668;28;20266;-47
2023/01/11 05:48:23;;;;;;;0.20;0.20;;;11.00;99.90;;;;;;5078472;28;20203;-48
2023/01/11 05:50:55;;;;;;;0.10;0.10;;;11.00;99.90;;;;;;5079113;28;20215;-47
2023/01/11 05:53:22;;;;;;;0.10;0.10;;;11.00;99.90;;;;;;5079460;28;20685;-46
2023/01/11 05:55:54;;;;;;;0.10;0.10;;;11.00;99.90;;;;;;5078853;28;20179;-46
2023/01/11 05:58:21;;;;;;;0.37;0.20;;;11.00;99.90;;;;;;5079471;28;20635;-47
2023/01/11 06:00:52;;;;;;;0.20;0.20;;;11.00;99.90;;;;;;5077710;28;20184;-47
2023/01/11 06:03:18;;;;;;;0.10;0.10;;;11.00;99.90;;;;;;5076285;28;20207;-47
2023/01/11 06:05:44;;;;;;;0.10;0.10;;;10.90;99.90;;;;;;5076275;28;20189;-48
2023/01/11 06:08:10;;;;;;;0.20;0.20;;;11.00;99.90;;;;;;5076285;28;20182;-50
2023/01/11 06:10:35;;;;;;;0.20;0.20;;;11.00;99.90;;;;;;5077402;28;20245;-48
2023/01/11 06:15:45;;;;;;;1.03;0.20;;;11.00;99.90;;;;;;5077546;28;20218;-47
2023/01/11 06:18:10;;;;;;;0.40;0.20;;;10.90;99.90;;;;;;5079032;28;20184;-48
2023/01/11 06:20:36;;;;;;;0.30;0.30;;;10.90;99.90;;;;;;5078300;28;20620;-48
2023/01/11 06:23:02;;;;;;;0.30;0.17;;;10.90;99.90;;;;;;5060262;28;20212;-46
2023/01/11 06:25:29;;;;;;;0.20;0.20;;;10.90;99.90;;;;;;5059692;28;20564;-47
2023/01/11 06:27:55;;;;;;;0.97;0.20;;;10.90;99.90;;;;;;5077014;28;20269;-49
2023/01/11 06:30:24;;;;;;;0.23;0.23;;;10.90;99.90;;;;;;5076536;28;20175;-47
2023/01/11 06:32:53;;;;;;;0.20;0.20;;;10.90;99.90;;;;;;5076413;28;20199;-46
2023/01/11 06:35:19;;;;;;;0.40;0.20;;;10.90;99.90;;;;;;5075967;28;20651;-47
2023/01/11 06:37:44;;;;;;;0.20;0.20;;;10.90;99.90;;;;;;5057816;28;20267;-47
2023/01/11 06:40:10;;;;;;;2.43;0.20;;;10.90;99.90;;;;;;5075669;28;20627;-49
2023/01/11 06:42:36;;;;;;;2.17;0.30;;;10.90;99.90;;;;;;5075794;28;20231;-49
2023/01/11 06:45:01;;;;;;;1.07;0.30;;;10.90;99.90;;;;;;5076361;28;20586;-49
2023/01/11 06:47:27;;;;;;;0.23;0.23;;;10.90;99.90;;;;;;5076971;28;20186;-48
2023/01/11 06:49:52;;;;;;;0.23;0.23;;;10.90;99.90;;;;;;5076894;28;20267;-46
2023/01/11 06:52:18;;;;;;;1.30;0.77;;;10.90;99.90;;;;;;5077266;28;20620;-47
2023/01/11 06:54:43;;;;;;;0.50;0.50;;;10.90;99.90;;;;;;5075767;28;20643;-47
2023/01/11 06:57:09;;;;;;;0.50;0.43;;;11.00;99.90;;;;;;5075460;28;20628;-51
2023/01/11 06:59:37;;;;;;;0.70;0.70;;;11.00;99.90;;;;;;5075482;28;20538;-50
2023/01/11 07:02:02;;;;;;;0.50;0.50;;;11.00;99.90;;;;;;5075180;28;20724;-48
2023/01/11 07:04:29;;;;;;;0.73;0.37;;;11.00;99.90;;;;;;5057310;28;20238;-47
2023/01/11 07:06:55;;;;;;;0.40;0.40;;;11.00;99.90;;;;;;5075965;28;20274;-47
2023/01/11 07:09:21;;;;;;;0.60;0.30;;;11.00;99.90;;;;;;5075989;28;20219;-49
2023/01/11 07:11:46;;;;;;;0.20;0.20;;;11.00;99.90;;;;;;5076222;28;20227;-48
2023/01/11 07:14:14;;;;;;;0.83;0.30;;;11.00;99.90;;;;;;5076555;28;20243;-47
2023/01/11 07:16:40;;;;;;;0.70;0.63;;;11.00;99.90;;;;;;5076160;28;20172;-49
2023/01/11 07:19:05;;;;;;;1.73;0.40;;;10.90;99.90;;;;;;5076217;28;20523;-50
2023/01/11 07:21:31;;;;;;;3.97;0.67;;;10.90;99.90;;;;;;5075909;28;20249;-49
2023/01/11 07:23:57;;;;;;;2.10;0.50;;;10.90;99.90;;;;;;5057430;28;20191;-48
2023/01/11 07:26:25;;;;;;;1.90;0.67;;;10.80;99.90;;;;;;5075372;28;20646;-49
2023/01/11 07:28:50;;;;;;;0.87;0.60;;;10.80;99.90;;;;;;5074640;28;20263;-49
2023/01/11 07:31:16;;;;;;;1.20;0.50;;;10.80;99.90;;;;;;5074707;28;20331;-48
2023/01/11 07:33:41;;;;;;;1.23;0.50;;;10.80;99.90;;;;;;5075439;28;20211;-50
2023/01/11 07:36:07;;;;;;;1.30;0.70;;;10.80;99.90;;;;;;5074601;28;20635;-47
2023/01/11 07:38:33;;;;;;;1.60;0.60;;;10.70;99.90;;;;;;5074671;28;20190;-47
2023/01/11 07:40:58;;;;;;;1.87;0.50;;;10.70;99.90;;;;;;5074393;28;20199;-47
2023/01/11 07:43:24;;;;;;;3.23;0.67;;;10.70;99.90;;;;;;5074477;28;20249;-48
2023/01/11 07:45:51;;;;;;;2.13;0.87;;;10.70;99.90;;;;;;5075240;28;20184;-50
2023/01/11 07:48:25;;;;;;;1.90;0.90;;;10.70;99.90;;;;;;5075467;28;20659;-48
2023/01/11 07:50:51;;;;;;;0.63;0.60;;;10.70;99.90;;;;;;5076175;28;20163;-48
2023/01/11 07:53:17;;;;;;;1.57;0.70;;;10.70;99.90;;;;;;5076298;28;20221;-48
2023/01/11 07:55:43;;;;;;;5.87;1.77;;;10.70;99.90;;;;;;5076809;28;20172;-48
2023/01/11 07:58:11;;;;;;;3.40;1.40;;;10.70;99.90;;;;;;5075749;28;20191;-48
2023/01/11 08:00:37;;;;;;;2.40;1.23;;;10.70;99.90;;;;;;5076979;28;20206;-48
2023/01/11 08:03:02;;;;;;;4.77;1.00;;;10.60;99.90;;;;;;5075974;28;20203;-48
2023/01/11 08:05:28;;;;;;;3.07;0.83;;;10.60;99.90;;;;;;5075819;28;20183;-48
2023/01/11 08:07:54;;;;;;;4.37;1.13;;;10.70;99.90;;;;;;5075660;28;20183;-49
2023/01/11 08:10:19;;;;;;;2.50;0.90;;;10.60;99.90;;;;;;5076024;28;20228;-47
2023/01/11 08:15:32;;;;;;;2.00;0.90;;;10.70;99.90;;;;;;5076263;28;20280;-48
2023/01/11 08:17:58;;;;;;;1.63;0.90;;;10.70;99.90;;;;;;5076512;28;20175;-48
2023/01/11 08:20:25;;;;;;;2.10;0.90;;;10.60;99.90;;;;;;5077039;28;20174;-47
2023/01/11 08:22:51;;;;;;;3.20;1.20;;;10.70;99.90;;;;;;5077138;28;20290;-49
2023/01/11 08:25:17;;;;;;;9.67;3.30;;;10.70;99.90;;;;;;5077110;28;20654;-48
2023/01/11 08:27:43;;;;;;;4.27;2.00;;;10.60;99.90;;;;;;5077365;28;20262;-47
2023/01/11 08:30:09;;;;;;;6.20;1.70;;;10.70;99.90;;;;;;5077286;28;20262;-48
2023/01/11 08:32:35;;;;;;;6.53;2.00;;;10.70;99.90;;;;;;5077499;28;20214;-49
2023/01/11 08:35:00;;;;;;;5.60;2.03;;;10.70;99.90;;;;;;5077639;28;20197;-48
2023/01/11 08:37:26;;;;;;;7.53;2.37;;;10.70;99.90;;;;;;5077293;28;20183;-49
2023/01/11 08:39:52;;;;;;;13.27;4.20;;;10.70;99.90;;;;;;5078069;28;20182;-49
2023/01/11 08:42:17;;;;;;;20.57;6.00;;;10.70;99.90;;;;;;5077907;28;20686;-49
2023/01/11 08:44:43;;;;;;;41.47;14.47;;;10.70;99.90;;;;;;5077386;28;20182;-48
2023/01/11 08:47:09;;;;;;;8.23;3.37;;;10.70;99.90;;;;;;5059920;28;20183;-48
2023/01/11 08:49:34;;;;;;;7.87;3.00;;;10.70;99.90;;;;;;5077737;28;20262;-49
2023/01/11 08:52:00;;;;;;;8.43;3.37;;;10.70;99.90;;;;;;5059574;28;20237;-49
2023/01/11 08:54:25;;;;;;;7.57;2.77;;;10.70;99.90;;;;;;5077532;28;20180;-48
2023/01/11 08:56:51;;;;;;;8.60;3.07;;;10.70;99.90;;;;;;5077727;28;20225;-48
2023/01/11 08:59:18;;;;;;;11.70;3.73;;;10.70;99.90;;;;;;5077722;28;20210;-49
2023/01/11 09:01:44;;;;;;;7.03;2.90;;;10.70;99.90;;;;;;5077248;28;20382;-47
2023/01/11 09:04:09;;;;;;;8.57;3.00;;;10.70;99.90;;;;;;5077664;28;20650;-48
2023/01/11 09:06:35;;;;;;;9.00;3.03;;;10.70;99.90;;;;;;5077701;28;20183;-49
2023/01/11 09:09:00;;;;;;;10.47;3.40;;;10.70;99.90;;;;;;5077624;28;20187;-49
2023/01/11 09:14:10;;;;;;;13.50;4.43;;;10.70;99.90;;;;;;5081451;28;20186;-50
2023/01/11 09:16:36;;;;;;;8.43;3.73;;;10.70;99.90;;;;;;5081814;28;20190;-48
2023/01/11 09:19:02;;;;;;;15.00;4.40;;;10.70;99.90;;;;;;5081836;28;20239;-49
2023/01/11 09:21:28;;;;;;;15.57;4.67;;;10.70;99.90;;;;;;5081945;28;20202;-50
2023/01/11 09:23:53;;;;;;;11.30;3.97;;;10.70;99.90;;;;;;5081795;28;20172;-50
2023/01/11 09:26:19;;;;;;;13.10;3.90;;;10.70;99.90;;;;;;5081842;28;20183;-49
2023/01/11 09:28:45;;;;;;;13.67;4.80;;;10.60;99.90;;;;;;5081056;28;20187;-50
2023/01/11 09:31:10;;;;;;;8.97;4.07;;;10.70;99.90;;;;;;5081041;28;20230;-48
2023/01/11 09:33:37;;;;;;;13.97;3.93;;;10.70;99.90;;;;;;5080161;28;20614;-50
2023/01/11 09:36:03;;;;;;;11.73;4.27;;;10.60;99.90;;;;;;5080855;28;20233;-48
2023/01/11 09:38:29;;;;;;;14.63;3.57;;;10.60;99.90;;;;;;5079570;28;20547;-51
2023/01/11 09:41:07;;;;;;;15.23;3.90;;;10.60;99.90;;;;;;5080282;28;20171;-48
2023/01/11 09:43:39;;;;;;;13.17;3.87;;;10.60;99.90;;;;;;5079795;28;20183;-49
2023/01/11 09:46:07;;;;;;;10.63;3.60;;;10.60;99.90;;;;;;5079639;28;20202;-48
2023/01/11 09:48:45;;;;;;;13.37;3.77;;;10.50;99.90;;;;;;5079318;28;20654;-50
2023/01/11 09:51:16;;;;;;;14.87;3.63;;;10.50;99.90;;;;;;5079291;28;20525;-50
2023/01/11 09:53:48;;;;;;;17.37;3.70;;;10.50;99.90;;;;;;5078860;28;20188;-48
2023/01/11 09:56:22;;;;;;;16.83;4.13;;;10.50;99.90;;;;;;5078830;28;20170;-50
2023/01/11 09:59:13;;;;;;;12.87;3.13;;;10.40;99.90;;;;;;5079470;28;20230;-49
2023/01/11 10:01:48;;;;;;;12.60;3.73;;;10.40;99.90;;;;;;5078886;28;20564;-50
2023/01/11 10:04:40;;;;;;;10.93;3.30;;;10.40;99.90;;;;;;5078935;28;20162;-50
2023/01/11 10:07:11;;;;;;;8.10;2.73;;;10.40;99.90;;;;;;5078714;28;20194;-48
2023/01/11 10:09:52;;;;;;;12.07;3.77;;;10.40;99.90;;;;;;5078529;28;20210;-49
2023/01/11 10:12:43;;;;;;;11.97;3.00;;;10.30;99.90;;;;;;5078966;28;20214;-49
2023/01/11 10:15:18;;;;;;;9.57;3.00;;;10.30;99.90;;;;;;5080839;28;20184;-47
2023/01/11 10:17:46;;;;;;;13.07;3.87;;;10.30;99.90;;;;;;5081177;28;20159;-47
2023/01/11 10:20:12;;;;;;;17.47;3.40;;;10.30;99.90;;;;;;5081045;28;20179;-50
2023/01/11 10:22:45;;;;;;;13.37;3.90;;;10.30;99.90;;;;;;5079499;28;20199;-47
2023/01/11 10:25:13;;;;;;;18.67;3.23;;;10.30;99.90;;;;;;5080763;28;20183;-48
2023/01/11 10:27:46;;;;;;;11.57;3.30;;;10.30;99.90;;;;;;5081039;28;20666;-47
2023/01/11 10:30:36;;;;;;;12.63;2.93;;;10.20;99.90;;;;;;5080828;28;20163;-49
2023/01/11 10:33:44;;;;;;;15.13;3.20;;;10.20;99.90;;;;;;5062690;28;20200;-48
2023/01/11 10:36:24;;;;;;;7.87;2.93;;;10.10;99.90;;;;;;5080497;28;20281;-48
2023/01/11 10:39:46;;;;;;;11.37;2.63;;;10.10;99.90;;;;;;5080456;28;20188;-49
2023/01/11 10:42:15;;;;;;;13.13;2.60;;;10.10;99.90;;;;;;5079753;28;20207;-48
2023/01/11 10:44:52;;;;;;;12.37;3.50;;;10.20;99.90;;;;;;5080091;28;20545;-48
2023/01/11 10:47:22;;;;;;;13.63;2.83;;;10.10;99.90;;;;;;5078693;28;20163;-50
2023/01/11 10:49:58;;;;;;;14.60;2.80;;;10.10;99.90;;;;;;5079631;28;20156;-49
2023/01/11 10:52:32;;;;;;;14.33;3.30;;;10.10;99.90;;;;;;5061149;28;20202;-48
2023/01/11 10:55:01;;;;;;;19.87;4.00;;;10.30;99.90;;;;;;5079292;28;20171;-49
2023/01/11 10:57:33;;;;;;;18.27;3.10;;;10.40;99.90;;;;;;5078698;28;20717;-49
2023/01/11 11:00:06;;;;;;;12.00;3.10;;;10.40;99.90;;;;;;5078852;28;20164;-47
2023/01/11 11:02:52;;;;;;;11.67;2.67;;;10.40;99.90;;;;;;5060534;28;20200;-47
2023/01/11 11:05:46;;;;;;;19.00;3.50;;;10.40;99.90;;;;;;5078250;28;20198;-49
2023/01/11 11:08:25;;;;;;;20.67;2.77;;;10.40;99.90;;;;;;5077924;28;20172;-49
2023/01/11 11:10:59;;;;;;;15.97;2.80;;;10.50;99.90;;;;;;5077979;28;20203;-50
2023/01/11 11:13:31;;;;;;;15.00;2.90;;;10.50;99.90;;;;;;5077753;28;20190;-50
2023/01/11 11:16:13;;;;;;;14.27;3.47;;;10.50;99.90;;;;;;5077157;28;20195;-49
2023/01/11 11:18:40;;;;;;;10.07;2.83;;;10.60;99.90;;;;;;5076675;28;20160;-48
2023/01/11 11:21:19;;;;;;;13.77;3.80;;;10.70;99.90;;;;;;5076120;28;20191;-49
2023/01/11 11:23:52;;;;;;;10.00;2.87;;;10.80;99.90;;;;;;5075574;28;20167;-49
2023/01/11 11:26:19;;;;;;;15.83;3.43;;;10.80;99.90;;;;;;5075596;28;20171;-49
2023/01/11 11:29:04;;;;;;;13.80;2.97;;;10.90;99.90;;;;;;5074891;28;20175;-49
2023/01/11 11:31:30;;;;;;;16.90;3.03;;;11.00;99.90;;;;;;5074933;28;20654;-48
2023/01/11 11:33:57;;;;;;;15.60;3.37;;;11.00;99.90;;;;;;5075041;28;20228;-48
2023/01/11 11:36:23;;;;;;;12.60;2.90;;;11.00;99.90;;;;;;5074964;28;20183;-50
2023/01/11 11:39:20;;;;;;;18.67;4.20;;;10.90;99.90;;;;;;5074702;28;20168;-49
2023/01/11 11:42:03;;;;;;;13.33;4.17;;;10.90;99.90;;;;;;5075189;28;20202;-50
2023/01/11 11:44:29;;;;;;;25.13;3.03;;;10.80;99.90;;;;;;5075292;28;20166;-49
2023/01/11 11:47:02;;;;;;;15.90;3.10;;;10.70;99.90;;;;;;5075451;28;20707;-51
2023/01/11 11:49:30;;;;;;;16.97;3.53;;;10.70;99.90;;;;;;5075601;28;20167;-49
2023/01/11 11:51:59;;;;;;;17.53;4.40;;;10.60;99.90;;;;;;5075356;28;20226;-50
2023/01/11 11:54:30;;;;;;;16.73;3.07;;;10.60;99.90;;;;;;5075838;28;20685;-49
2023/01/11 11:56:58;;;;;;;14.63;2.80;;;10.70;99.90;;;;;;5058389;28;20206;-50
2023/01/11 11:59:28;;;;;;;15.83;2.90;;;10.70;99.90;;;;;;5075766;28;20190;-51
2023/01/11 12:02:03;;;;;;;8.13;2.07;;;10.80;99.90;;;;;;5076128;28;20282;-49
2023/01/11 12:04:38;;;;;;;7.27;2.27;;;10.80;99.90;;;;;;5076092;28;20195;-48
2023/01/11 12:07:29;;;;;;;14.77;2.47;;;10.90;99.90;;;;;;5075536;28;20633;-50
2023/01/11 12:10:08;;;;;;;13.63;3.37;;;10.90;99.90;;;;;;5075669;28;20180;-50
2023/01/11 12:12:54;;;;;;;16.63;3.10;;;10.90;99.90;;;;;;5075155;28;20208;-49
2023/01/11 12:15:24;;;;;;;20.67;3.20;;;10.90;99.90;;;;;;5075510;28;20218;-50
2023/01/11 12:17:50;;;;;;;17.77;2.73;;;10.90;99.90;;;;;;5075697;28;20174;-48
2023/01/11 12:20:22;;;;;;;18.30;2.87;;;11.00;99.90;;;;;;5076183;28;20513;-49
2023/01/11 12:23:08;;;;;;;11.47;2.37;;;10.90;99.90;;;;;;5075386;28;20230;-49
2023/01/11 12:25:46;;;;;;;12.70;2.03;;;11.00;99.90;;;;;;5059814;28;20191;-47
2023/01/11 12:28:43;;;;;;;15.13;2.80;;;10.90;99.90;;;;;;5073686;28;20160;-47
2023/01/11 12:31:20;;;;;;;12.63;2.53;;;10.90;99.90;;;;;;5036029;28;20544;-48
2023/01/11 12:34:13;;;;;;;15.30;2.90;;;11.00;99.90;;;;;;5074088;28;20249;-48
2023/01/11 12:37:00;;;;;;;11.60;2.00;;;11.00;99.90;;;;;;5073772;28;20160;-47
2023/01/11 12:39:41;;;;;;;4.23;1.23;;;11.00;99.90;;;;;;5073609;28;20168;-48
2023/01/11 12:42:25;;;;;;;8.90;2.50;;;11.00;99.90;;;;;;5073707;28;20614;-48
2023/01/11 12:45:09;;;;;;;15.90;2.97;;;11.00;99.90;;;;;;5073566;28;20177;-47
2023/01/11 12:47:49;;;;;;;18.23;2.73;;;11.00;99.90;;;;;;5073409;28;20710;-47
2023/01/11 12:50:28;;;;;;;13.20;2.87;;;11.00;99.90;;;;;;5073644;28;20179;-47
2023/01/11 12:53:41;;;;;;;14.67;2.80;;;11.00;99.90;;;;;;5073653;28;20203;-48
2023/01/11 12:56:35;;;;;;;12.73;2.63;;;11.00;99.90;;;;;;4992270;28;20182;-48
2023/01/11 12:59:30;;;;;;;9.37;2.33;;;11.20;99.90;;;;;;5073855;28;20160;-46
2023/01/11 13:02:08;;;;;;;11.83;2.67;;;11.20;99.90;;;;;;5073946;28;20217;-45
2023/01/11 13:04:37;;;;;;;17.43;3.03;;;11.30;99.90;;;;;;5056547;28;20191;-45
2023/01/11 13:07:13;;;;;;;10.17;2.33;;;11.30;99.90;;;;;;5073372;28;20541;-45
2023/01/11 13:10:02;;;;;;;14.37;2.97;;;11.20;99.90;;;;;;5073488;28;20160;-45
2023/01/11 13:13:15;;;;;;;12.63;2.60;;;11.20;99.90;;;;;;5073082;28;20204;-44
2023/01/11 13:15:54;;;;;;;14.97;3.00;;;11.10;99.90;;;;;;5065845;28;20199;-46
2023/01/11 13:18:42;;;;;;;15.60;2.50;;;11.10;99.90;;;;;;5073527;28;20160;-46
2023/01/11 13:21:33;;;;;;;17.80;3.20;;;11.10;99.90;;;;;;5073387;28;20172;-46
2023/01/11 13:24:07;;;;;;;11.50;2.17;;;11.10;99.90;;;;;;5073665;28;20168;-44
2023/01/11 13:26:44;;;;;;;14.87;1.90;;;11.10;99.90;;;;;;5073342;28;20175;-48
2023/01/11 13:29:32;;;;;;;7.83;1.93;;;11.20;99.90;;;;;;5073282;28;20167;-46
2023/01/11 13:32:02;;;;;;;13.63;3.00;;;11.20;99.90;;;;;;5072857;28;20753;-47
2023/01/11 13:34:49;;;;;;;14.83;3.10;;;11.20;99.90;;;;;;5072916;28;20168;-47